Accueil
METAR-TAF:

METAR-TAF

Aéroports :

El-Tor, Égypte

latitude: 28-14N, longitude: 032-37E, altitude: 21 m

Observation

Le bulletin a été fait il y a 1 heure et 20 minutes, à 06:00 UTC
Vent 11 kt de ouest/nord-ouest
Température 30°C
Humidité 84%
Pression 1003 hPa
Visibilité: 5000 m
sable,

METAR: HETR 250600Z 30011KT 5000 SA NSC 30/27 Q1003

Heure: 09:20 (07:20 UTC)

Prévision

Le bulletin a été fait il y a 2 heures et 20 minutes, à 05:00 UTC
Prévision valable du 25 à 06 UTC au 26 à 12 UTC
Vent 8 kt de nord-ouest avec des rafales jusqu'à 20 kt
Visibilité: 6000 m
Temporairement
du 25 à 06 UTC au 25 à 17 UTC
Visibilité: 3000 m
sable,

TAF: HETR 250500Z 2506/2612 32008G20KT 6000 NSC TEMPO 2506/2517 3000 SA

Observations et prévisions météorologiques de plus de 4000 aéroports (messages METAR et TAF).

Les stations disponibles sont représentées par des disques jaunes et rouges sur la carte.

Passer la souris dessus pour voir le nom de la station.

Cliquer dessus pour voir les observations et prévisions météorologiques.

Pour changer de carte: cliquez sur les boutons verts avec une croix noire pour zoomer, sur le bouton vert avec un tiret pour effectuer un zoom arrière, ou sur les flèches vertes pour les cartes adjacentes.


METAR-TAF: